Daphne, AL (36526)

5:19 AM CDT on August 20, 2014 (GMT -0500)
S/V Grace | Change Station
CLOSE
Current Station
Personal Weather Station
Location: Daphne, AL
Elevation: 38 ft
Nearby Weather Stations

Elev 38 ft 30.59 °N, 87.91 °W | Updated 3 minutes ago

Mostly Cloudy
Mostly Cloudy
74.0 °F
Feels Like 70 °F
N
0.0
Wind Variable Wind from ENE
Gusts 0.0 mph

Today
High -- | Low -- °F
--% Chance of Precip.
Yesterday
High -- | Low -- °F
Precip. -- in
6:21 AM 7:28 PM
Waning Crescent, 22% visible
Pressure 30.01 in
Visibility 10.0 miles
Clouds Scattered Clouds 2200 ft
Mostly Cloudy 2900 ft
Mostly Cloudy 3300 ft
Heat Index 70 °F
Dew Point 73 °F
Humidity 98%
Rainfall 0.00 in
Snow Depth Not available.
UV 0 out of 12
Pollen 7.40 out of 12
Air Quality Not available.
Flu Activity Not available.
METAR KBFM 200953Z 00000KT 10SM SCT022 BKN029 BKN033 24/23 A3002 RMK AO2 SLP163 T02390233

More Conditions Fewer Conditions

Pressure 30.01 in
Visibility 10.0 miles
Clouds Scattered Clouds 2200 ft
Mostly Cloudy 2900 ft
Mostly Cloudy 3300 ft
Heat Index 70 °F
Dew Point 73 °F
Humidity 98%
Rainfall 0.00 in
Snow Depth Not available.
UV 0 out of 12
Pollen 7.40 out of 12
Air Quality Not available.
Flu Activity Not available.
METAR KBFM 200953Z 00000KT 10SM SCT022 BKN029 BKN033 24/23 A3002 RMK AO2 SLP163 T02390233

More Conditions Fewer Conditions

10-Day Weather Forecast

Almanac

Astronomy

Aug. 20, 2014 Rise Set
Actual Time 6:21 AM CDT 7:28 PM CDT
Civil Twilight 5:56 AM CDT 7:53 PM CDT
Nautical Twilight 5:26 AM CDT 8:22 PM CDT
Astronomical Twilight 4:55 AM CDT 8:53 PM CDT
Moon 2:08 AM CDT 4:05 PM CDT
Length of Visible Light 13h 57m
Length of Day
13h 07m
Tomorrow will be 1m 41s shorter.
Waning Crescent, 22% of the Moon is Illuminated
Today
Waning Crescent
Aug 25
New
Sep 2
First Quarter
Sep 8
Full
Sep 15
Last Quarter

Today's Extremes

State Highs State Lows

Community

WunderPhotos

Upload Photos

1,745,604 photos uploaded!

Nearby

Snow Depth

Station Depth Elevation
No new snow has been reported.

Earthquake Activity

City Distance Mag. Time & Date
No recent earthquake activity has been reported nearby.
Minimum magnitude displayed is 2.5.

Coastal Water Temperatures

Place Temperature
Mobile State Docks, AL 87.1 °F
Coast Guard Sector Mobile, AL 84.9 °F

Nearby Weather Stations